sensor_id;sensor_type;location;lat;lon;timestamp;P1;durP1;ratioP1;P2;durP2;ratioP2
44764;SDS011;30484;52.382;5.260;2024-01-30T00:00:18;37.33;;;19.30;;
44764;SDS011;30484;52.382;5.260;2024-01-30T00:02:48;30.77;;;18.45;;
44764;SDS011;30484;52.382;5.260;2024-01-30T00:05:16;37.72;;;20.00;;
44764;SDS011;30484;52.382;5.260;2024-01-30T00:07:45;40.80;;;20.60;;
44764;SDS011;30484;52.382;5.260;2024-01-30T00:10:13;35.00;;;18.88;;
44764;SDS011;30484;52.382;5.260;2024-01-30T00:12:43;37.33;;;20.85;;
44764;SDS011;30484;52.382;5.260;2024-01-30T00:15:11;40.30;;;20.00;;
44764;SDS011;30484;52.382;5.260;2024-01-30T00:17:41;38.45;;;20.33;;
44764;SDS011;30484;52.382;5.260;2024-01-30T00:20:10;39.63;;;20.25;;
44764;SDS011;30484;52.382;5.260;2024-01-30T00:22:39;38.50;;;20.13;;
44764;SDS011;30484;52.382;5.260;2024-01-30T00:25:07;37.35;;;19.38;;
44764;SDS011;30484;52.382;5.260;2024-01-30T00:27:36;33.95;;;19.98;;
44764;SDS011;30484;52.382;5.260;2024-01-30T00:30:06;38.15;;;20.10;;
44764;SDS011;30484;52.382;5.260;2024-01-30T00:32:36;37.70;;;19.08;;
44764;SDS011;30484;52.382;5.260;2024-01-30T00:35:05;36.78;;;20.02;;
44764;SDS011;30484;52.382;5.260;2024-01-30T00:37:36;34.05;;;19.52;;
44764;SDS011;30484;52.382;5.260;2024-01-30T00:40:05;39.35;;;19.20;;
44764;SDS011;30484;52.382;5.260;2024-01-30T00:42:36;43.00;;;19.75;;
44764;SDS011;30484;52.382;5.260;2024-01-30T00:45:11;35.67;;;19.50;;
44764;SDS011;30484;52.382;5.260;2024-01-30T00:47:40;38.10;;;19.70;;
44764;SDS011;30484;52.382;5.260;2024-01-30T00:50:09;41.10;;;19.60;;
44764;SDS011;30484;52.382;5.260;2024-01-30T00:52:38;33.20;;;19.75;;
44764;SDS011;30484;52.382;5.260;2024-01-30T00:55:08;33.67;;;20.08;;
44764;SDS011;30484;52.382;5.260;2024-01-30T00:57:36;37.20;;;20.30;;
44764;SDS011;30484;52.382;5.260;2024-01-30T01:00:08;37.88;;;19.52;;
44764;SDS011;30484;52.382;5.260;2024-01-30T01:02:37;35.13;;;19.85;;
44764;SDS011;30484;52.382;5.260;2024-01-30T01:05:06;41.45;;;19.58;;
44764;SDS011;30484;52.382;5.260;2024-01-30T01:07:35;36.65;;;20.42;;
44764;SDS011;30484;52.382;5.260;2024-01-30T01:10:04;42.72;;;19.27;;
44764;SDS011;30484;52.382;5.260;2024-01-30T01:12:33;40.80;;;19.95;;
44764;SDS011;30484;52.382;5.260;2024-01-30T01:15:02;41.10;;;20.02;;
44764;SDS011;30484;52.382;5.260;2024-01-30T01:17:32;40.28;;;20.15;;
44764;SDS011;30484;52.382;5.260;2024-01-30T01:20:01;39.28;;;19.15;;
44764;SDS011;30484;52.382;5.260;2024-01-30T01:22:30;35.05;;;18.73;;
44764;SDS011;30484;52.382;5.260;2024-01-30T01:24:58;40.03;;;19.55;;
44764;SDS011;30484;52.382;5.260;2024-01-30T01:27:27;33.45;;;19.42;;
44764;SDS011;30484;52.382;5.260;2024-01-30T01:29:56;39.25;;;19.25;;
44764;SDS011;30484;52.382;5.260;2024-01-30T01:32:24;35.60;;;17.20;;
44764;SDS011;30484;52.382;5.260;2024-01-30T01:34:54;35.33;;;17.90;;
44764;SDS011;30484;52.382;5.260;2024-01-30T01:37:22;33.92;;;16.90;;
44764;SDS011;30484;52.382;5.260;2024-01-30T01:39:53;33.28;;;17.50;;
44764;SDS011;30484;52.382;5.260;2024-01-30T01:42:21;30.20;;;17.23;;
44764;SDS011;30484;52.382;5.260;2024-01-30T01:44:49;38.03;;;17.38;;
44764;SDS011;30484;52.382;5.260;2024-01-30T01:47:18;27.20;;;16.52;;
44764;SDS011;30484;52.382;5.260;2024-01-30T01:49:46;38.08;;;17.50;;
44764;SDS011;30484;52.382;5.260;2024-01-30T01:52:17;34.38;;;16.30;;
44764;SDS011;30484;52.382;5.260;2024-01-30T01:54:45;30.83;;;17.23;;
44764;SDS011;30484;52.382;5.260;2024-01-30T01:57:14;31.17;;;16.17;;
44764;SDS011;30484;52.382;5.260;2024-01-30T01:59:42;29.15;;;16.92;;
44764;SDS011;30484;52.382;5.260;2024-01-30T02:02:10;26.20;;;15.30;;
44764;SDS011;30484;52.382;5.260;2024-01-30T02:04:40;29.10;;;15.63;;
44764;SDS011;30484;52.382;5.260;2024-01-30T02:07:09;28.35;;;15.63;;
44764;SDS011;30484;52.382;5.260;2024-01-30T02:09:39;29.35;;;15.88;;
44764;SDS011;30484;52.382;5.260;2024-01-30T02:12:07;33.33;;;14.90;;
44764;SDS011;30484;52.382;5.260;2024-01-30T02:14:43;30.70;;;14.88;;
44764;SDS011;30484;52.382;5.260;2024-01-30T02:17:12;26.27;;;15.23;;
44764;SDS011;30484;52.382;5.260;2024-01-30T02:19:41;25.20;;;14.35;;
44764;SDS011;30484;52.382;5.260;2024-01-30T02:22:11;30.60;;;14.90;;
44764;SDS011;30484;52.382;5.260;2024-01-30T02:24:40;26.35;;;15.13;;
44764;SDS011;30484;52.382;5.260;2024-01-30T02:27:08;25.80;;;14.23;;
44764;SDS011;30484;52.382;5.260;2024-01-30T02:29:37;30.90;;;15.65;;
44764;SDS011;30484;52.382;5.260;2024-01-30T02:32:05;29.20;;;15.18;;
44764;SDS011;30484;52.382;5.260;2024-01-30T02:34:34;24.77;;;14.95;;
44764;SDS011;30484;52.382;5.260;2024-01-30T02:37:03;24.98;;;14.93;;
44764;SDS011;30484;52.382;5.260;2024-01-30T02:39:33;24.30;;;14.15;;
44764;SDS011;30484;52.382;5.260;2024-01-30T02:42:01;29.23;;;14.43;;
44764;SDS011;30484;52.382;5.260;2024-01-30T02:44:30;28.67;;;14.98;;
44764;SDS011;30484;52.382;5.260;2024-01-30T02:46:59;25.23;;;14.70;;
44764;SDS011;30484;52.382;5.260;2024-01-30T02:49:27;24.85;;;14.52;;
44764;SDS011;30484;52.382;5.260;2024-01-30T02:51:55;28.33;;;15.23;;
44764;SDS011;30484;52.382;5.260;2024-01-30T02:54:24;24.65;;;13.55;;
44764;SDS011;30484;52.382;5.260;2024-01-30T02:56:54;24.40;;;14.48;;
44764;SDS011;30484;52.382;5.260;2024-01-30T02:59:22;26.15;;;14.55;;
44764;SDS011;30484;52.382;5.260;2024-01-30T03:01:50;30.10;;;14.15;;
44764;SDS011;30484;52.382;5.260;2024-01-30T03:04:19;29.60;;;14.38;;
44764;SDS011;30484;52.382;5.260;2024-01-30T03:06:47;25.50;;;14.63;;
44764;SDS011;30484;52.382;5.260;2024-01-30T03:09:16;28.20;;;15.52;;
44764;SDS011;30484;52.382;5.260;2024-01-30T03:11:44;24.05;;;14.48;;
44764;SDS011;30484;52.382;5.260;2024-01-30T03:14:14;27.42;;;14.07;;
44764;SDS011;30484;52.382;5.260;2024-01-30T03:16:43;26.58;;;15.10;;
44764;SDS011;30484;52.382;5.260;2024-01-30T03:19:11;28.80;;;15.13;;
44764;SDS011;30484;52.382;5.260;2024-01-30T03:21:40;26.70;;;13.80;;
44764;SDS011;30484;52.382;5.260;2024-01-30T03:24:08;23.65;;;14.13;;
44764;SDS011;30484;52.382;5.260;2024-01-30T03:26:37;26.40;;;15.07;;
44764;SDS011;30484;52.382;5.260;2024-01-30T03:29:05;26.33;;;14.45;;
44764;SDS011;30484;52.382;5.260;2024-01-30T03:31:35;24.20;;;13.93;;
44764;SDS011;30484;52.382;5.260;2024-01-30T03:34:03;25.33;;;14.43;;
44764;SDS011;30484;52.382;5.260;2024-01-30T03:36:32;23.77;;;14.35;;
44764;SDS011;30484;52.382;5.260;2024-01-30T03:39:01;28.45;;;14.00;;
44764;SDS011;30484;52.382;5.260;2024-01-30T03:41:29;22.98;;;13.32;;
44764;SDS011;30484;52.382;5.260;2024-01-30T03:43:57;28.35;;;13.57;;
44764;SDS011;30484;52.382;5.260;2024-01-30T03:46:26;23.05;;;12.85;;
44764;SDS011;30484;52.382;5.260;2024-01-30T03:48:55;25.45;;;14.20;;
44764;SDS011;30484;52.382;5.260;2024-01-30T03:51:24;26.67;;;14.02;;
44764;SDS011;30484;52.382;5.260;2024-01-30T03:53:52;23.80;;;14.50;;
44764;SDS011;30484;52.382;5.260;2024-01-30T03:56:20;22.73;;;13.65;;
44764;SDS011;30484;52.382;5.260;2024-01-30T03:58:49;24.88;;;13.27;;
44764;SDS011;30484;52.382;5.260;2024-01-30T04:01:17;27.05;;;13.68;;
44764;SDS011;30484;52.382;5.260;2024-01-30T04:03:45;22.52;;;13.30;;
44764;SDS011;30484;52.382;5.260;2024-01-30T04:06:15;25.42;;;14.30;;
44764;SDS011;30484;52.382;5.260;2024-01-30T04:08:44;25.63;;;14.15;;
44764;SDS011;30484;52.382;5.260;2024-01-30T04:11:12;23.02;;;13.30;;
44764;SDS011;30484;52.382;5.260;2024-01-30T04:13:40;25.35;;;13.45;;
44764;SDS011;30484;52.382;5.260;2024-01-30T04:16:18;26.55;;;14.23;;
44764;SDS011;30484;52.382;5.260;2024-01-30T04:18:48;25.55;;;13.52;;
44764;SDS011;30484;52.382;5.260;2024-01-30T04:21:20;23.23;;;13.13;;
44764;SDS011;30484;52.382;5.260;2024-01-30T04:23:48;29.50;;;14.13;;
44764;SDS011;30484;52.382;5.260;2024-01-30T04:26:18;29.75;;;14.43;;
44764;SDS011;30484;52.382;5.260;2024-01-30T04:28:47;27.00;;;13.80;;
44764;SDS011;30484;52.382;5.260;2024-01-30T04:31:15;28.48;;;13.75;;
44764;SDS011;30484;52.382;5.260;2024-01-30T04:33:43;26.63;;;13.00;;
44764;SDS011;30484;52.382;5.260;2024-01-30T04:36:12;26.15;;;13.40;;
44764;SDS011;30484;52.382;5.260;2024-01-30T04:38:42;27.35;;;13.07;;
44764;SDS011;30484;52.382;5.260;2024-01-30T04:41:10;23.38;;;13.23;;
44764;SDS011;30484;52.382;5.260;2024-01-30T04:43:38;23.58;;;13.23;;
44764;SDS011;30484;52.382;5.260;2024-01-30T04:46:07;24.98;;;13.43;;
44764;SDS011;30484;52.382;5.260;2024-01-30T04:48:35;27.40;;;13.75;;
44764;SDS011;30484;52.382;5.260;2024-01-30T04:51:04;21.75;;;12.93;;
44764;SDS011;30484;52.382;5.260;2024-01-30T04:53:33;23.75;;;13.48;;
44764;SDS011;30484;52.382;5.260;2024-01-30T04:56:03;22.55;;;13.30;;
44764;SDS011;30484;52.382;5.260;2024-01-30T04:58:33;28.95;;;14.52;;
44764;SDS011;30484;52.382;5.260;2024-01-30T05:01:01;28.83;;;12.95;;
44764;SDS011;30484;52.382;5.260;2024-01-30T05:03:32;26.73;;;13.93;;
44764;SDS011;30484;52.382;5.260;2024-01-30T05:06:01;22.15;;;13.30;;
44764;SDS011;30484;52.382;5.260;2024-01-30T05:08:30;27.40;;;12.93;;
44764;SDS011;30484;52.382;5.260;2024-01-30T05:10:59;24.33;;;13.88;;
44764;SDS011;30484;52.382;5.260;2024-01-30T05:13:31;25.15;;;14.65;;
44764;SDS011;30484;52.382;5.260;2024-01-30T05:16:01;25.55;;;14.10;;
44764;SDS011;30484;52.382;5.260;2024-01-30T05:18:30;24.73;;;13.88;;
44764;SDS011;30484;52.382;5.260;2024-01-30T05:20:59;27.80;;;13.77;;
44764;SDS011;30484;52.382;5.260;2024-01-30T05:23:27;31.33;;;13.98;;
44764;SDS011;30484;52.382;5.260;2024-01-30T05:25:55;24.90;;;13.43;;
44764;SDS011;30484;52.382;5.260;2024-01-30T05:28:25;29.08;;;13.88;;
44764;SDS011;30484;52.382;5.260;2024-01-30T05:30:55;25.58;;;13.52;;
44764;SDS011;30484;52.382;5.260;2024-01-30T05:33:24;24.95;;;14.05;;
44764;SDS011;30484;52.382;5.260;2024-01-30T05:35:52;23.35;;;13.45;;
44764;SDS011;30484;52.382;5.260;2024-01-30T05:38:21;24.02;;;14.18;;
44764;SDS011;30484;52.382;5.260;2024-01-30T05:40:50;35.63;;;14.10;;
44764;SDS011;30484;52.382;5.260;2024-01-30T05:43:18;20.83;;;14.05;;
44764;SDS011;30484;52.382;5.260;2024-01-30T05:45:46;31.58;;;13.95;;
44764;SDS011;30484;52.382;5.260;2024-01-30T05:48:16;23.80;;;13.63;;
44764;SDS011;30484;52.382;5.260;2024-01-30T05:50:45;25.60;;;14.52;;
44764;SDS011;30484;52.382;5.260;2024-01-30T05:53:14;28.83;;;14.32;;
44764;SDS011;30484;52.382;5.260;2024-01-30T05:55:42;26.77;;;14.70;;
44764;SDS011;30484;52.382;5.260;2024-01-30T05:58:11;26.58;;;15.23;;
44764;SDS011;30484;52.382;5.260;2024-01-30T06:00:39;26.23;;;13.80;;
44764;SDS011;30484;52.382;5.260;2024-01-30T06:03:08;22.70;;;13.98;;
44764;SDS011;30484;52.382;5.260;2024-01-30T06:05:37;22.70;;;13.82;;
44764;SDS011;30484;52.382;5.260;2024-01-30T06:08:06;27.45;;;14.15;;
44764;SDS011;30484;52.382;5.260;2024-01-30T06:10:35;23.35;;;13.98;;
44764;SDS011;30484;52.382;5.260;2024-01-30T06:13:03;24.10;;;13.40;;
44764;SDS011;30484;52.382;5.260;2024-01-30T06:15:32;27.10;;;14.00;;
44764;SDS011;30484;52.382;5.260;2024-01-30T06:18:00;26.90;;;13.38;;
44764;SDS011;30484;52.382;5.260;2024-01-30T06:20:29;29.42;;;14.10;;
44764;SDS011;30484;52.382;5.260;2024-01-30T06:22:59;25.85;;;14.38;;
44764;SDS011;30484;52.382;5.260;2024-01-30T06:25:27;25.92;;;12.63;;
44764;SDS011;30484;52.382;5.260;2024-01-30T06:27:55;25.00;;;13.55;;
44764;SDS011;30484;52.382;5.260;2024-01-30T06:30:24;23.67;;;13.40;;
44764;SDS011;30484;52.382;5.260;2024-01-30T06:32:52;29.15;;;13.45;;
44764;SDS011;30484;52.382;5.260;2024-01-30T06:35:21;28.13;;;13.27;;
44764;SDS011;30484;52.382;5.260;2024-01-30T06:37:49;26.30;;;12.93;;
44764;SDS011;30484;52.382;5.260;2024-01-30T06:40:19;28.13;;;13.35;;
44764;SDS011;30484;52.382;5.260;2024-01-30T06:42:47;28.98;;;13.20;;
44764;SDS011;30484;52.382;5.260;2024-01-30T06:45:16;27.35;;;13.68;;
44764;SDS011;30484;52.382;5.260;2024-01-30T06:47:44;23.55;;;13.52;;
44764;SDS011;30484;52.382;5.260;2024-01-30T06:50:13;24.15;;;12.57;;
44764;SDS011;30484;52.382;5.260;2024-01-30T06:52:42;22.98;;;13.45;;
44764;SDS011;30484;52.382;5.260;2024-01-30T06:55:10;25.80;;;12.48;;
44764;SDS011;30484;52.382;5.260;2024-01-30T06:57:40;24.95;;;12.90;;
44764;SDS011;30484;52.382;5.260;2024-01-30T07:00:08;25.02;;;12.52;;
44764;SDS011;30484;52.382;5.260;2024-01-30T07:02:40;23.85;;;12.15;;
44764;SDS011;30484;52.382;5.260;2024-01-30T07:05:09;25.75;;;12.13;;
44764;SDS011;30484;52.382;5.260;2024-01-30T07:07:37;26.45;;;12.50;;
44764;SDS011;30484;52.382;5.260;2024-01-30T07:10:06;27.35;;;12.25;;
44764;SDS011;30484;52.382;5.260;2024-01-30T07:12:36;28.38;;;12.32;;
44764;SDS011;30484;52.382;5.260;2024-01-30T07:15:06;23.67;;;11.75;;
44764;SDS011;30484;52.382;5.260;2024-01-30T07:17:35;23.60;;;12.82;;
44764;SDS011;30484;52.382;5.260;2024-01-30T07:20:04;19.65;;;11.63;;
44764;SDS011;30484;52.382;5.260;2024-01-30T07:22:38;27.27;;;13.10;;
44764;SDS011;30484;52.382;5.260;2024-01-30T07:25:07;22.75;;;11.70;;
44764;SDS011;30484;52.382;5.260;2024-01-30T07:27:36;22.23;;;11.95;;
44764;SDS011;30484;52.382;5.260;2024-01-30T07:30:06;21.70;;;11.90;;
44764;SDS011;30484;52.382;5.260;2024-01-30T07:32:35;22.88;;;11.35;;
44764;SDS011;30484;52.382;5.260;2024-01-30T07:35:04;29.70;;;12.73;;
44764;SDS011;30484;52.382;5.260;2024-01-30T07:37:35;22.38;;;10.85;;
44764;SDS011;30484;52.382;5.260;2024-01-30T07:40:03;26.50;;;11.65;;
44764;SDS011;30484;52.382;5.260;2024-01-30T07:42:34;23.23;;;11.35;;
44764;SDS011;30484;52.382;5.260;2024-01-30T07:45:02;22.88;;;11.18;;
44764;SDS011;30484;52.382;5.260;2024-01-30T07:47:32;22.88;;;11.32;;
44764;SDS011;30484;52.382;5.260;2024-01-30T07:50:01;22.70;;;11.02;;
44764;SDS011;30484;52.382;5.260;2024-01-30T07:52:30;24.25;;;11.20;;
44764;SDS011;30484;52.382;5.260;2024-01-30T07:55:01;26.58;;;10.85;;
44764;SDS011;30484;52.382;5.260;2024-01-30T07:57:30;24.15;;;10.85;;
44764;SDS011;30484;52.382;5.260;2024-01-30T07:59:58;21.63;;;9.75;;
44764;SDS011;30484;52.382;5.260;2024-01-30T08:02:27;23.92;;;10.88;;
44764;SDS011;30484;52.382;5.260;2024-01-30T08:04:57;24.27;;;11.35;;
44764;SDS011;30484;52.382;5.260;2024-01-30T08:07:25;24.08;;;10.30;;
44764;SDS011;30484;52.382;5.260;2024-01-30T08:09:56;25.08;;;10.10;;
44764;SDS011;30484;52.382;5.260;2024-01-30T08:12:24;25.75;;;10.18;;
44764;SDS011;30484;52.382;5.260;2024-01-30T08:14:52;21.98;;;10.00;;
44764;SDS011;30484;52.382;5.260;2024-01-30T08:17:21;25.38;;;9.85;;
44764;SDS011;30484;52.382;5.260;2024-01-30T08:19:49;19.50;;;10.02;;
44764;SDS011;30484;52.382;5.260;2024-01-30T08:22:19;31.55;;;11.15;;
44764;SDS011;30484;52.382;5.260;2024-01-30T08:24:47;21.00;;;10.60;;
44764;SDS011;30484;52.382;5.260;2024-01-30T08:27:16;22.23;;;10.23;;
44764;SDS011;30484;52.382;5.260;2024-01-30T08:29:45;26.38;;;9.95;;
44764;SDS011;30484;52.382;5.260;2024-01-30T08:32:13;24.85;;;10.57;;
44764;SDS011;30484;52.382;5.260;2024-01-30T08:34:41;25.17;;;10.80;;
44764;SDS011;30484;52.382;5.260;2024-01-30T08:37:10;21.60;;;10.07;;
44764;SDS011;30484;52.382;5.260;2024-01-30T08:39:40;22.50;;;10.02;;
44764;SDS011;30484;52.382;5.260;2024-01-30T08:42:08;24.92;;;10.43;;
44764;SDS011;30484;52.382;5.260;2024-01-30T08:44:36;19.40;;;9.52;;
44764;SDS011;30484;52.382;5.260;2024-01-30T08:47:05;30.95;;;10.40;;
44764;SDS011;30484;52.382;5.260;2024-01-30T08:49:33;19.80;;;9.80;;
44764;SDS011;30484;52.382;5.260;2024-01-30T08:52:02;25.52;;;9.70;;
44764;SDS011;30484;52.382;5.260;2024-01-30T08:54:31;27.90;;;10.85;;
44764;SDS011;30484;52.382;5.260;2024-01-30T08:57:02;24.15;;;10.15;;
44764;SDS011;30484;52.382;5.260;2024-01-30T08:59:31;21.25;;;9.88;;
44764;SDS011;30484;52.382;5.260;2024-01-30T09:02:00;26.00;;;9.98;;
44764;SDS011;30484;52.382;5.260;2024-01-30T09:04:38;18.73;;;9.35;;
44764;SDS011;30484;52.382;5.260;2024-01-30T09:07:07;19.73;;;10.10;;
44764;SDS011;30484;52.382;5.260;2024-01-30T09:09:37;18.45;;;9.88;;
44764;SDS011;30484;52.382;5.260;2024-01-30T09:12:08;24.08;;;10.43;;
44764;SDS011;30484;52.382;5.260;2024-01-30T09:14:38;25.77;;;10.15;;
44764;SDS011;30484;52.382;5.260;2024-01-30T09:17:08;19.85;;;9.82;;
44764;SDS011;30484;52.382;5.260;2024-01-30T09:19:37;20.42;;;10.48;;
44764;SDS011;30484;52.382;5.260;2024-01-30T09:22:05;29.40;;;10.68;;
44764;SDS011;30484;52.382;5.260;2024-01-30T09:24:34;31.63;;;10.82;;
44764;SDS011;30484;52.382;5.260;2024-01-30T09:27:02;23.35;;;9.98;;
44764;SDS011;30484;52.382;5.260;2024-01-30T09:29:33;20.90;;;9.90;;
44764;SDS011;30484;52.382;5.260;2024-01-30T09:32:04;20.80;;;9.45;;
44764;SDS011;30484;52.382;5.260;2024-01-30T09:34:35;22.63;;;10.25;;
44764;SDS011;30484;52.382;5.260;2024-01-30T09:37:03;19.20;;;10.30;;
44764;SDS011;30484;52.382;5.260;2024-01-30T09:39:32;23.48;;;9.73;;
44764;SDS011;30484;52.382;5.260;2024-01-30T09:42:01;27.85;;;10.38;;
44764;SDS011;30484;52.382;5.260;2024-01-30T09:44:40;23.92;;;10.02;;
44764;SDS011;30484;52.382;5.260;2024-01-30T09:47:11;27.33;;;10.43;;
44764;SDS011;30484;52.382;5.260;2024-01-30T09:49:40;23.98;;;11.13;;
44764;SDS011;30484;52.382;5.260;2024-01-30T09:52:11;23.90;;;10.60;;
44764;SDS011;30484;52.382;5.260;2024-01-30T09:54:40;22.98;;;10.50;;
44764;SDS011;30484;52.382;5.260;2024-01-30T09:57:11;22.80;;;9.98;;
44764;SDS011;30484;52.382;5.260;2024-01-30T09:59:41;29.33;;;11.30;;
44764;SDS011;30484;52.382;5.260;2024-01-30T10:02:10;19.10;;;9.52;;
44764;SDS011;30484;52.382;5.260;2024-01-30T10:04:38;22.92;;;11.00;;
44764;SDS011;30484;52.382;5.260;2024-01-30T10:07:06;22.90;;;10.55;;
44764;SDS011;30484;52.382;5.260;2024-01-30T10:09:37;25.35;;;10.35;;
44764;SDS011;30484;52.382;5.260;2024-01-30T10:12:06;26.13;;;10.30;;
44764;SDS011;30484;52.382;5.260;2024-01-30T10:14:37;23.65;;;10.73;;
44764;SDS011;30484;52.382;5.260;2024-01-30T10:17:08;21.90;;;10.23;;
44764;SDS011;30484;52.382;5.260;2024-01-30T10:19:49;27.88;;;10.90;;
44764;SDS011;30484;52.382;5.260;2024-01-30T10:22:18;19.98;;;9.57;;
44764;SDS011;30484;52.382;5.260;2024-01-30T10:24:48;18.88;;;10.35;;
44764;SDS011;30484;52.382;5.260;2024-01-30T10:27:17;24.25;;;10.07;;
44764;SDS011;30484;52.382;5.260;2024-01-30T10:29:53;18.33;;;7.88;;
44764;SDS011;30484;52.382;5.260;2024-01-30T10:32:23;13.27;;;7.20;;
44764;SDS011;30484;52.382;5.260;2024-01-30T10:34:52;12.80;;;6.70;;
44764;SDS011;30484;52.382;5.260;2024-01-30T10:37:21;13.45;;;6.43;;
44764;SDS011;30484;52.382;5.260;2024-01-30T10:39:53;13.20;;;6.65;;
44764;SDS011;30484;52.382;5.260;2024-01-30T10:42:25;15.57;;;7.20;;
44764;SDS011;30484;52.382;5.260;2024-01-30T10:44:57;15.95;;;7.03;;
44764;SDS011;30484;52.382;5.260;2024-01-30T10:47:35;18.33;;;6.82;;
44764;SDS011;30484;52.382;5.260;2024-01-30T10:50:05;18.25;;;5.55;;
44764;SDS011;30484;52.382;5.260;2024-01-30T10:52:35;15.60;;;5.30;;
44764;SDS011;30484;52.382;5.260;2024-01-30T10:55:05;13.02;;;4.40;;
44764;SDS011;30484;52.382;5.260;2024-01-30T10:57:34;15.43;;;4.25;;
44764;SDS011;30484;52.382;5.260;2024-01-30T11:00:06;11.60;;;4.18;;
44764;SDS011;30484;52.382;5.260;2024-01-30T11:02:41;10.00;;;3.05;;
44764;SDS011;30484;52.382;5.260;2024-01-30T11:05:12;15.20;;;3.45;;
44764;SDS011;30484;52.382;5.260;2024-01-30T11:07:42;10.98;;;3.50;;
44764;SDS011;30484;52.382;5.260;2024-01-30T11:10:11;13.02;;;3.60;;
44764;SDS011;30484;52.382;5.260;2024-01-30T11:12:42;16.60;;;3.90;;
44764;SDS011;30484;52.382;5.260;2024-01-30T11:15:13;11.82;;;2.75;;
44764;SDS011;30484;52.382;5.260;2024-01-30T11:17:44;15.88;;;3.15;;
44764;SDS011;30484;52.382;5.260;2024-01-30T11:20:19;10.88;;;2.25;;
44764;SDS011;30484;52.382;5.260;2024-01-30T11:22:51;10.40;;;2.22;;
44764;SDS011;30484;52.382;5.260;2024-01-30T11:25:22;6.72;;;2.05;;
44764;SDS011;30484;52.382;5.260;2024-01-30T11:27:53;9.35;;;2.10;;
44764;SDS011;30484;52.382;5.260;2024-01-30T11:30:23;5.60;;;1.77;;
44764;SDS011;30484;52.382;5.260;2024-01-30T11:33:04;8.63;;;2.10;;
44764;SDS011;30484;52.382;5.260;2024-01-30T11:35:35;12.77;;;2.55;;
44764;SDS011;30484;52.382;5.260;2024-01-30T11:38:06;8.57;;;2.17;;
44764;SDS011;30484;52.382;5.260;2024-01-30T11:40:37;6.32;;;2.05;;
44764;SDS011;30484;52.382;5.260;2024-01-30T11:43:09;5.05;;;1.92;;
44764;SDS011;30484;52.382;5.260;2024-01-30T11:45:38;8.32;;;2.00;;
44764;SDS011;30484;52.382;5.260;2024-01-30T11:48:08;6.47;;;2.25;;
44764;SDS011;30484;52.382;5.260;2024-01-30T11:50:39;9.38;;;1.90;;
44764;SDS011;30484;52.382;5.260;2024-01-30T11:53:07;8.50;;;1.98;;
44764;SDS011;30484;52.382;5.260;2024-01-30T11:55:36;7.75;;;1.77;;
44764;SDS011;30484;52.382;5.260;2024-01-30T11:58:05;6.80;;;2.45;;
44764;SDS011;30484;52.382;5.260;2024-01-30T12:00:33;5.68;;;1.42;;
44764;SDS011;30484;52.382;5.260;2024-01-30T12:03:02;7.10;;;1.60;;
44764;SDS011;30484;52.382;5.260;2024-01-30T12:05:35;5.85;;;1.30;;
44764;SDS011;30484;52.382;5.260;2024-01-30T12:08:14;9.98;;;1.63;;
44764;SDS011;30484;52.382;5.260;2024-01-30T12:10:43;6.18;;;1.60;;
44764;SDS011;30484;52.382;5.260;2024-01-30T12:13:11;9.48;;;1.80;;
44764;SDS011;30484;52.382;5.260;2024-01-30T12:15:41;12.40;;;2.30;;
44764;SDS011;30484;52.382;5.260;2024-01-30T12:18:10;11.45;;;2.42;;
44764;SDS011;30484;52.382;5.260;2024-01-30T12:20:40;12.82;;;2.33;;
44764;SDS011;30484;52.382;5.260;2024-01-30T12:23:08;9.77;;;2.03;;
44764;SDS011;30484;52.382;5.260;2024-01-30T12:25:39;8.18;;;1.90;;
44764;SDS011;30484;52.382;5.260;2024-01-30T12:28:07;7.53;;;1.70;;
44764;SDS011;30484;52.382;5.260;2024-01-30T12:30:36;8.77;;;1.50;;
44764;SDS011;30484;52.382;5.260;2024-01-30T12:33:05;11.27;;;1.67;;
44764;SDS011;30484;52.382;5.260;2024-01-30T12:35:35;9.80;;;1.77;;
44764;SDS011;30484;52.382;5.260;2024-01-30T12:38:15;11.23;;;1.70;;
44764;SDS011;30484;52.382;5.260;2024-01-30T12:40:44;6.30;;;1.63;;
44764;SDS011;30484;52.382;5.260;2024-01-30T12:43:13;8.27;;;1.92;;
44764;SDS011;30484;52.382;5.260;2024-01-30T12:45:57;11.82;;;1.60;;
44764;SDS011;30484;52.382;5.260;2024-01-30T12:48:27;13.63;;;1.90;;
44764;SDS011;30484;52.382;5.260;2024-01-30T12:50:56;10.25;;;1.35;;
44764;SDS011;30484;52.382;5.260;2024-01-30T12:53:26;12.30;;;1.50;;
44764;SDS011;30484;52.382;5.260;2024-01-30T12:55:55;9.85;;;1.77;;
44764;SDS011;30484;52.382;5.260;2024-01-30T12:58:24;21.58;;;2.67;;
44764;SDS011;30484;52.382;5.260;2024-01-30T13:00:53;10.60;;;2.05;;
44764;SDS011;30484;52.382;5.260;2024-01-30T13:03:22;13.02;;;1.90;;
44764;SDS011;30484;52.382;5.260;2024-01-30T13:05:50;14.35;;;2.40;;
44764;SDS011;30484;52.382;5.260;2024-01-30T13:08:19;20.08;;;2.15;;
44764;SDS011;30484;52.382;5.260;2024-01-30T13:10:49;9.57;;;1.80;;
44764;SDS011;30484;52.382;5.260;2024-01-30T13:13:17;15.32;;;2.33;;
44764;SDS011;30484;52.382;5.260;2024-01-30T13:15:46;12.15;;;2.25;;
44764;SDS011;30484;52.382;5.260;2024-01-30T13:18:15;12.75;;;2.97;;
44764;SDS011;30484;52.382;5.260;2024-01-30T13:20:43;9.98;;;2.47;;
44764;SDS011;30484;52.382;5.260;2024-01-30T13:23:12;14.30;;;2.83;;
44764;SDS011;30484;52.382;5.260;2024-01-30T13:25:41;13.23;;;2.45;;
44764;SDS011;30484;52.382;5.260;2024-01-30T13:28:10;13.65;;;2.15;;
44764;SDS011;30484;52.382;5.260;2024-01-30T13:30:39;21.08;;;3.33;;
44764;SDS011;30484;52.382;5.260;2024-01-30T13:33:07;10.45;;;2.67;;
44764;SDS011;30484;52.382;5.260;2024-01-30T13:35:36;10.98;;;2.28;;
44764;SDS011;30484;52.382;5.260;2024-01-30T13:38:04;11.30;;;2.88;;
44764;SDS011;30484;52.382;5.260;2024-01-30T13:40:32;10.98;;;2.40;;
44764;SDS011;30484;52.382;5.260;2024-01-30T13:43:01;6.60;;;2.03;;
44764;SDS011;30484;52.382;5.260;2024-01-30T13:45:31;9.50;;;2.20;;
44764;SDS011;30484;52.382;5.260;2024-01-30T13:47:59;10.55;;;2.40;;
44764;SDS011;30484;52.382;5.260;2024-01-30T13:50:29;10.82;;;2.63;;
44764;SDS011;30484;52.382;5.260;2024-01-30T13:52:59;6.30;;;2.75;;
44764;SDS011;30484;52.382;5.260;2024-01-30T13:55:28;8.43;;;3.00;;
44764;SDS011;30484;52.382;5.260;2024-01-30T13:57:56;13.90;;;3.20;;
44764;SDS011;30484;52.382;5.260;2024-01-30T14:00:25;8.63;;;3.10;;
44764;SDS011;30484;52.382;5.260;2024-01-30T14:02:55;12.55;;;3.75;;
44764;SDS011;30484;52.382;5.260;2024-01-30T14:05:24;7.78;;;3.25;;
44764;SDS011;30484;52.382;5.260;2024-01-30T14:07:53;8.07;;;3.70;;
44764;SDS011;30484;52.382;5.260;2024-01-30T14:10:23;8.65;;;3.60;;
44764;SDS011;30484;52.382;5.260;2024-01-30T14:12:52;9.23;;;3.83;;
44764;SDS011;30484;52.382;5.260;2024-01-30T14:15:21;10.98;;;3.85;;
44764;SDS011;30484;52.382;5.260;2024-01-30T14:17:56;11.63;;;4.03;;
44764;SDS011;30484;52.382;5.260;2024-01-30T14:20:25;8.93;;;3.67;;
44764;SDS011;30484;52.382;5.260;2024-01-30T14:22:54;6.63;;;3.90;;
44764;SDS011;30484;52.382;5.260;2024-01-30T14:25:23;7.35;;;4.03;;
44764;SDS011;30484;52.382;5.260;2024-01-30T14:27:52;7.40;;;3.92;;
44764;SDS011;30484;52.382;5.260;2024-01-30T14:30:20;8.73;;;4.90;;
44764;SDS011;30484;52.382;5.260;2024-01-30T14:32:49;9.70;;;4.38;;
44764;SDS011;30484;52.382;5.260;2024-01-30T14:35:19;10.65;;;4.50;;
44764;SDS011;30484;52.382;5.260;2024-01-30T14:37:48;7.85;;;4.35;;
44764;SDS011;30484;52.382;5.260;2024-01-30T14:40:17;10.70;;;4.97;;